Milos — A8TH8 — position and weather

sailwx.info

Track history (hours):
 
Tides and Currents Weather Stations Pressure Air Temp Water Temp Dewpoint Dewpoint Depression Visibility Wind Speed Wind Dir Waves Ship Positions

Milos

Last reported at 2015-Jun-19 15:05 UTC. Time now 2015-Jul-01 01:50 UTC.
Position N 35°02' E 120°10'.
Warning: this ship's position is 11 days out of date.

Length 190 m; draft 9.5 m.

Type: Cargo ship. MMSI: 636014358.

Date/timePositionNaut miles runAvg speedWind from/ knotsBaromVisibWave heightAir tempDewpointWater temp
2015-Jun-19 15:05N 35°02' E 120°10'913.8
2015-Jun-19 14:27N 34°57' E 120°01'1213.2
2015-Jun-19 13:32N 34°52' E 119°48'1111.1
2015-Jun-19 12:33N 34°47' E 119°36'9 9.3
2015-Jun-19 11:33N 34°45' E 119°25'2 1.6
2015-Jun-19 10:27N 34°45' E 119°23'0 0.0
2015-Jun-19 09:28N 34°45' E 119°23'0 0.0
2015-Jun-19 01:27N 34°45' E 119°23'0 0.0
2015-Jun-19 00:33N 34°45' E 119°23'0 0.0
2015-Jun-18 23:27N 34°45' E 119°23'0 0.0
2015-Jun-18 22:33N 34°45' E 119°23'0 0.0
2015-Jun-18 21:33N 34°45' E 119°23'0 0.0
2015-Jun-18 19:21N 34°45' E 119°23'0 0.0
2015-Jun-18 18:21N 34°45' E 119°23'0 0.0
2015-Jun-18 17:27N 34°45' E 119°23'0 0.0
2015-Jun-18 12:33N 34°45' E 119°23'0 0.0
2015-Jun-18 11:33N 34°45' E 119°23'0 0.0
2015-Jun-18 10:33N 34°45' E 119°23'0 0.0
2015-Jun-18 09:21N 34°45' E 119°23'0 0.0
2015-Jun-18 08:33N 34°45' E 119°23'0 0.0
2015-Jun-18 02:09N 34°45' E 119°23'0 0.0
2015-Jun-18 00:33N 34°45' E 119°23'0 0.0
2015-Jun-17 22:27N 34°45' E 119°23'0 0.0
2015-Jun-17 20:27N 34°45' E 119°23'0 0.0
2015-Jun-17 19:09N 34°45' E 119°23'0 0.0
2015-Jun-17 18:33N 34°45' E 119°23'0 0.0
2015-Jun-17 17:33N 34°45' E 119°23'0 0.0
2015-Jun-17 16:33N 34°45' E 119°23'0 0.0
2015-Jun-17 15:33N 34°45' E 119°23'0 0.0
2015-Jun-17 14:33N 34°45' E 119°23'0 0.0
2015-Jun-17 13:33N 34°45' E 119°23'0 0.0
2015-Jun-17 11:33N 34°45' E 119°23'0 0.0
2015-Jun-17 10:15N 34°45' E 119°23'0 0.0
2015-Jun-17 09:33N 34°45' E 119°23'0 0.0
2015-Jun-17 08:33N 34°45' E 119°23'0 0.0
2015-Jun-17 07:27N 34°45' E 119°23'0 0.0
2015-Jun-17 05:21N 34°45' E 119°23'0 0.0
2015-Jun-17 04:33N 34°45' E 119°23'0 0.0
2015-Jun-17 03:33N 34°45' E 119°23'0 0.0
2015-Jun-17 02:33N 34°45' E 119°23'0 0.0
2015-Jun-17 01:09N 34°45' E 119°23'0 0.0
2015-Jun-17 00:27N 34°45' E 119°23'0 0.0
2015-Jun-16 23:21N 34°45' E 119°23'0 0.0
2015-Jun-16 22:27N 34°45' E 119°23'0 0.0
2015-Jun-16 13:33N 34°45' E 119°23'0 0.0
2015-Jun-16 12:33N 34°45' E 119°23'0 0.0
2015-Jun-16 11:21N 34°45' E 119°23'0 0.0
2015-Jun-16 10:33N 34°45' E 119°23'0 0.0
2015-Jun-16 09:33N 34°45' E 119°23'0 0.0
2015-Jun-16 08:33N 34°45' E 119°23'0 0.0
2015-Jun-16 07:33N 34°45' E 119°23'0 0.0
2015-Jun-16 06:27N 34°45' E 119°23'0 0.0
2015-Jun-16 05:27N 34°45' E 119°23'0 0.0
2015-Jun-16 04:21N 34°45' E 119°23'0 0.0
2015-Jun-16 02:33N 34°45' E 119°23'0 0.0
2015-Jun-16 01:21N 34°45' E 119°23'0 0.0
2015-Jun-15 22:27N 34°45' E 119°23'4 4.6
2015-Jun-15 21:33N 34°45' E 119°28'11 9.8
2015-Jun-15 20:26N 34°49' E 119°41'8 9.4
2015-Jun-15 19:33N 34°53' E 119°49'2 2.0
2015-Jun-15 18:23N 34°55' E 119°51'0 0.1
2015-Jun-15 17:17N 34°55' E 119°51'0 0.1
2015-Jun-15 16:29N 34°55' E 119°51'0 0.0
2015-Jun-15 15:30N 34°55' E 119°51'6 6.7
2015-Jun-15 14:33N 34°57' E 119°59'1111.1
2015-Jun-15 13:33N 35°02' E 120°11'1110.9
2015-Jun-15 12:33N 35°07' E 120°23'8 8.4
2015-Jun-15 11:32N 35°11' E 120°31'1312.3
2015-Jun-15 10:31N 35°18' E 120°44'1712.7
2015-Jun-15 09:10N 35°28' E 121°01'2413.0
2015-Jun-15 07:19N 35°45' E 121°22'1513.1
2015-Jun-15 06:12N 35°56' E 121°35'6313.0
2015-Jun-15 01:22N 36°40' E 122°30'1113.1
2015-Jun-15 00:33N 36°48' E 122°39'1212.4
2015-Jun-14 23:33N 36°59' E 122°46'1212.5
2015-Jun-14 22:33N 37°11' E 122°46'1211.5
2015-Jun-14 21:29N 37°24' E 122°46'1211.3
2015-Jun-14 20:26N 37°34' E 122°38'1112.2
2015-Jun-14 19:33N 37°40' E 122°27'1412.8
2015-Jun-14 18:29N 37°48' E 122°13'1813.4
2015-Jun-14 17:07N 37°59' E 121°54'1213.6
2015-Jun-14 16:13N 38°06' E 121°42'913.6
2015-Jun-14 15:33N 38°12' E 121°33'6613.1
2015-Jun-14 10:28N 38°37' E 120°15'1513.8
2015-Jun-14 09:21N 38°39' E 119°55'1113.8
2015-Jun-14 08:32N 38°41' E 119°41'1313.6
2015-Jun-14 07:32N 38°42' E 119°24'6112.1
2015-Jun-14 02:27N 38°54' E 118°06'910.2
2015-Jun-14 01:33N 38°57' E 117°55'9 9.1
2015-Jun-14 00:33N 39°03' E 117°46'0 0.0
2015-Jun-13 23:31N 39°03' E 117°46'0 0.0
2015-Jun-13 22:31N 39°03' E 117°46'0 0.0
2015-Jun-13 21:31N 39°03' E 117°46'0 0.0
2015-Jun-13 20:31N 39°03' E 117°46'0 0.0
2015-Jun-13 19:31N 39°03' E 117°46'0 0.0
2015-Jun-13 18:31N 39°03' E 117°46'0 0.0
2015-Jun-13 17:31N 39°03' E 117°46'0 0.0
2015-Jun-13 16:31N 39°03' E 117°46'0 0.0
2015-Jun-13 15:31N 39°03' E 117°46'0 0.0
2015-Jun-13 14:32N 39°03' E 117°46'0 0.0
2015-Jun-13 13:31N 39°03' E 117°46'0 0.0
2015-Jun-13 12:31N 39°03' E 117°46'0 0.0
2015-Jun-13 11:31N 39°03' E 117°46'0 0.0
2015-Jun-13 10:31N 39°03' E 117°46'0 0.0
2015-Jun-13 09:25N 39°03' E 117°46'0 0.0
2015-Jun-13 08:31N 39°03' E 117°46'0 0.0
2015-Jun-13 07:31N 39°03' E 117°46'0 0.0
2015-Jun-13 06:31N 39°03' E 117°46'0 0.0
2015-Jun-13 05:31N 39°03' E 117°46'0 0.0
2015-Jun-13 04:31N 39°03' E 117°46'0 0.0
2015-Jun-13 03:34N 39°03' E 117°46'0 0.1
2015-Jun-13 02:33N 39°03' E 117°46'8 7.8
2015-Jun-13 01:33N 38°57' E 117°53'7 6.7
2015-Jun-13 00:32N 38°58' E 118°02'0 0.1
2015-Jun-12 21:31N 38°58' E 118°02'0 0.0
2015-Jun-12 20:20N 38°58' E 118°03'2 2.0
2015-Jun-12 19:30N 38°56' E 118°04'11 7.6
2015-Jun-12 18:06N 38°51' E 118°16'611.9
2015-Jun-12 17:33N 38°51' E 118°24'  
2015-Jun-09 17:17N 39°01' E 119°08'0 0.1
2015-Jun-09 16:23N 39°01' E 119°08'0 0.0
2015-Jun-09 15:23N 39°01' E 119°08'  
Track history (hours):
 
Tides and Currents Weather Stations Pressure Air Temp Water Temp Dewpoint Dewpoint Depression Visibility Wind Speed Wind Dir Waves Ship Positions

Milos

Last reported at 2015-Jun-19 15:05 UTC. Time now 2015-Jul-01 01:50 UTC.
Position N 35°02' E 120°10'.
Warning: this ship's position is 11 days out of date.

Length 190 m; draft 9.5 m.

Type: Cargo ship. MMSI: 636014358.

Date/timePositionNaut miles runAvg speedWind from/ knotsBaromVisibWave heightAir tempDewpointWater temp
2015-Jun-19 15:05N 35°02' E 120°10'913.8
2015-Jun-19 14:27N 34°57' E 120°01'1213.2
2015-Jun-19 13:32N 34°52' E 119°48'1111.1
2015-Jun-19 12:33N 34°47' E 119°36'9 9.3
2015-Jun-19 11:33N 34°45' E 119°25'2 1.6
2015-Jun-19 10:27N 34°45' E 119°23'0 0.0
2015-Jun-19 09:28N 34°45' E 119°23'0 0.0
2015-Jun-19 01:27N 34°45' E 119°23'0 0.0
2015-Jun-19 00:33N 34°45' E 119°23'0 0.0
2015-Jun-18 23:27N 34°45' E 119°23'0 0.0
2015-Jun-18 22:33N 34°45' E 119°23'0 0.0
2015-Jun-18 21:33N 34°45' E 119°23'0 0.0
2015-Jun-18 19:21N 34°45' E 119°23'0 0.0
2015-Jun-18 18:21N 34°45' E 119°23'0 0.0
2015-Jun-18 17:27N 34°45' E 119°23'0 0.0
2015-Jun-18 12:33N 34°45' E 119°23'0 0.0
2015-Jun-18 11:33N 34°45' E 119°23'0 0.0
2015-Jun-18 10:33N 34°45' E 119°23'0 0.0
2015-Jun-18 09:21N 34°45' E 119°23'0 0.0
2015-Jun-18 08:33N 34°45' E 119°23'0 0.0
2015-Jun-18 02:09N 34°45' E 119°23'0 0.0
2015-Jun-18 00:33N 34°45' E 119°23'0 0.0
2015-Jun-17 22:27N 34°45' E 119°23'0 0.0
2015-Jun-17 20:27N 34°45' E 119°23'0 0.0
2015-Jun-17 19:09N 34°45' E 119°23'0 0.0
2015-Jun-17 18:33N 34°45' E 119°23'0 0.0
2015-Jun-17 17:33N 34°45' E 119°23'0 0.0
2015-Jun-17 16:33N 34°45' E 119°23'0 0.0
2015-Jun-17 15:33N 34°45' E 119°23'0 0.0
2015-Jun-17 14:33N 34°45' E 119°23'0 0.0
2015-Jun-17 13:33N 34°45' E 119°23'0 0.0
2015-Jun-17 11:33N 34°45' E 119°23'0 0.0
2015-Jun-17 10:15N 34°45' E 119°23'0 0.0
2015-Jun-17 09:33N 34°45' E 119°23'0 0.0
2015-Jun-17 08:33N 34°45' E 119°23'0 0.0
2015-Jun-17 07:27N 34°45' E 119°23'0 0.0
2015-Jun-17 05:21N 34°45' E 119°23'0 0.0
2015-Jun-17 04:33N 34°45' E 119°23'0 0.0
2015-Jun-17 03:33N 34°45' E 119°23'0 0.0
2015-Jun-17 02:33N 34°45' E 119°23'0 0.0
2015-Jun-17 01:09N 34°45' E 119°23'0 0.0
2015-Jun-17 00:27N 34°45' E 119°23'0 0.0
2015-Jun-16 23:21N 34°45' E 119°23'0 0.0
2015-Jun-16 22:27N 34°45' E 119°23'0 0.0
2015-Jun-16 13:33N 34°45' E 119°23'0 0.0
2015-Jun-16 12:33N 34°45' E 119°23'0 0.0
2015-Jun-16 11:21N 34°45' E 119°23'0 0.0
2015-Jun-16 10:33N 34°45' E 119°23'0 0.0
2015-Jun-16 09:33N 34°45' E 119°23'0 0.0
2015-Jun-16 08:33N 34°45' E 119°23'0 0.0
2015-Jun-16 07:33N 34°45' E 119°23'0 0.0
2015-Jun-16 06:27N 34°45' E 119°23'0 0.0
2015-Jun-16 05:27N 34°45' E 119°23'0 0.0
2015-Jun-16 04:21N 34°45' E 119°23'0 0.0
2015-Jun-16 02:33N 34°45' E 119°23'0 0.0
2015-Jun-16 01:21N 34°45' E 119°23'0 0.0
2015-Jun-15 22:27N 34°45' E 119°23'4 4.6
2015-Jun-15 21:33N 34°45' E 119°28'11 9.8
2015-Jun-15 20:26N 34°49' E 119°41'8 9.4
2015-Jun-15 19:33N 34°53' E 119°49'2 2.0
2015-Jun-15 18:23N 34°55' E 119°51'0 0.1
2015-Jun-15 17:17N 34°55' E 119°51'0 0.1
2015-Jun-15 16:29N 34°55' E 119°51'0 0.0
2015-Jun-15 15:30N 34°55' E 119°51'6 6.7
2015-Jun-15 14:33N 34°57' E 119°59'1111.1
2015-Jun-15 13:33N 35°02' E 120°11'1110.9
2015-Jun-15 12:33N 35°07' E 120°23'8 8.4
2015-Jun-15 11:32N 35°11' E 120°31'1312.3
2015-Jun-15 10:31N 35°18' E 120°44'1712.7
2015-Jun-15 09:10N 35°28' E 121°01'2413.0
2015-Jun-15 07:19N 35°45' E 121°22'1513.1
2015-Jun-15 06:12N 35°56' E 121°35'6313.0
2015-Jun-15 01:22N 36°40' E 122°30'1113.1
2015-Jun-15 00:33N 36°48' E 122°39'1212.4
2015-Jun-14 23:33N 36°59' E 122°46'1212.5
2015-Jun-14 22:33N 37°11' E 122°46'1211.5
2015-Jun-14 21:29N 37°24' E 122°46'1211.3
2015-Jun-14 20:26N 37°34' E 122°38'1112.2
2015-Jun-14 19:33N 37°40' E 122°27'1412.8
2015-Jun-14 18:29N 37°48' E 122°13'1813.4
2015-Jun-14 17:07N 37°59' E 121°54'1213.6
2015-Jun-14 16:13N 38°06' E 121°42'913.6
2015-Jun-14 15:33N 38°12' E 121°33'6613.1
2015-Jun-14 10:28N 38°37' E 120°15'1513.8
2015-Jun-14 09:21N 38°39' E 119°55'1113.8
2015-Jun-14 08:32N 38°41' E 119°41'1313.6
2015-Jun-14 07:32N 38°42' E 119°24'6112.1
2015-Jun-14 02:27N 38°54' E 118°06'910.2
2015-Jun-14 01:33N 38°57' E 117°55'9 9.1
2015-Jun-14 00:33N 39°03' E 117°46'0 0.0
2015-Jun-13 23:31N 39°03' E 117°46'0 0.0
2015-Jun-13 22:31N 39°03' E 117°46'0 0.0
2015-Jun-13 21:31N 39°03' E 117°46'0 0.0
2015-Jun-13 20:31N 39°03' E 117°46'0 0.0
2015-Jun-13 19:31N 39°03' E 117°46'0 0.0
2015-Jun-13 18:31N 39°03' E 117°46'0 0.0
2015-Jun-13 17:31N 39°03' E 117°46'0 0.0
2015-Jun-13 16:31N 39°03' E 117°46'0 0.0
2015-Jun-13 15:31N 39°03' E 117°46'0 0.0
2015-Jun-13 14:32N 39°03' E 117°46'0 0.0
2015-Jun-13 13:31N 39°03' E 117°46'0 0.0
2015-Jun-13 12:31N 39°03' E 117°46'0 0.0
2015-Jun-13 11:31N 39°03' E 117°46'0 0.0
2015-Jun-13 10:31N 39°03' E 117°46'0 0.0
2015-Jun-13 09:25N 39°03' E 117°46'0 0.0
2015-Jun-13 08:31N 39°03' E 117°46'0 0.0
2015-Jun-13 07:31N 39°03' E 117°46'0 0.0
2015-Jun-13 06:31N 39°03' E 117°46'0 0.0
2015-Jun-13 05:31N 39°03' E 117°46'0 0.0
2015-Jun-13 04:31N 39°03' E 117°46'0 0.0
2015-Jun-13 03:34N 39°03' E 117°46'0 0.1
2015-Jun-13 02:33N 39°03' E 117°46'8 7.8
2015-Jun-13 01:33N 38°57' E 117°53'7 6.7
2015-Jun-13 00:32N 38°58' E 118°02'0 0.1
2015-Jun-12 21:31N 38°58' E 118°02'0 0.0
2015-Jun-12 20:20N 38°58' E 118°03'2 2.0
2015-Jun-12 19:30N 38°56' E 118°04'11 7.6
2015-Jun-12 18:06N 38°51' E 118°16'611.9
2015-Jun-12 17:33N 38°51' E 118°24'  
2015-Jun-09 17:17N 39°01' E 119°08'0 0.1
2015-Jun-09 16:23N 39°01' E 119°08'0 0.0
2015-Jun-09 15:23N 39°01' E 119°08'  

Dump ship's entire track history